Time;durP1;ratioP1;P1;durP2;ratioP2;P2;SDS_P1;SDS_P2;PMS_P1;PMS_P2;Temp;Humidity;BMP_temperature;BMP_pressure;BME280_temperature;BME280_humidity;BME280_pressure;Samples;Min_cycle;Max_cycle;Signal;HPM_P1;HPM_P2
2021/12/01 00:01:21;;;;;;;;;;;20.40;35.50;;;;;;478234;248;1333;-46
2021/12/01 00:03:22;;;;;;;;;;;20.40;35.50;;;;;;478740;249;979;-46
2021/12/01 00:05:24;;;;;;;;;;;20.40;35.50;;;;;;478298;249;2195;-46
2021/12/01 00:07:25;;;;;;;;;;;20.40;35.50;;;;;;478347;248;1284;-46
2021/12/01 00:09:27;;;;;;;;;;;20.40;35.50;;;;;;478781;249;1052;-46
2021/12/01 00:11:28;;;;;;;;;;;20.40;35.50;;;;;;478707;248;1512;-46
2021/12/01 00:13:32;;;;;;;;;;;20.40;35.50;;;;;;478274;249;1173;-46
2021/12/01 00:15:31;;;;;;;;;;;20.40;35.50;;;;;;478163;248;1362;-46
2021/12/01 00:17:32;;;;;;;;;;;20.40;35.50;;;;;;478379;248;1184;-46
2021/12/01 00:19:33;;;;;;;;;;;20.40;35.50;;;;;;478493;249;1079;-46
2021/12/01 00:21:35;;;;;;;;;;;20.40;35.50;;;;;;478393;248;1415;-46
2021/12/01 00:23:36;;;;;;;;;;;20.40;35.50;;;;;;478510;249;1027;-46
2021/12/01 00:25:40;;;;;;;;;;;20.40;35.50;;;;;;478613;249;2109;-46
2021/12/01 00:27:42;;;;;;;;;;;20.40;35.60;;;;;;478284;249;2363;-46
2021/12/01 00:29:42;;;;;;;;;;;20.40;35.50;;;;;;478287;249;2302;-46
2021/12/01 00:31:44;;;;;;;;;;;20.40;35.50;;;;;;478513;249;1246;-47
2021/12/01 00:33:45;;;;;;;;;;;20.40;35.50;;;;;;478782;249;1048;-46
2021/12/01 00:35:46;;;;;;;;;;;20.40;35.50;;;;;;478300;249;1150;-46
2021/12/01 00:37:48;;;;;;;;;;;20.30;35.60;;;;;;478169;249;1362;-46
2021/12/01 00:39:49;;;;;;;;;;;20.40;35.60;;;;;;478331;249;1063;-46
2021/12/01 00:41:51;;;;;;;;;;;20.40;35.60;;;;;;478428;249;1510;-46
2021/12/01 00:43:52;;;;;;;;;;;20.40;35.60;;;;;;478246;249;2388;-46
2021/12/01 00:45:56;;;;;;;;;;;20.40;35.60;;;;;;478267;249;2128;-46
2021/12/01 00:47:56;;;;;;;;;;;20.40;35.60;;;;;;478304;248;2017;-46
2021/12/01 00:49:57;;;;;;;;;;;20.40;35.60;;;;;;478746;249;1071;-46
2021/12/01 00:51:58;;;;;;;;;;;20.40;35.60;;;;;;478379;249;1187;-46
2021/12/01 00:54:00;;;;;;;;;;;20.40;35.70;;;;;;478364;249;1053;-46
2021/12/01 00:56:01;;;;;;;;;;;20.40;35.60;;;;;;478294;249;1224;-46
2021/12/01 00:58:02;;;;;;;;;;;20.40;35.60;;;;;;478304;249;1034;-46
2021/12/01 01:00:04;;;;;;;;;;;20.40;35.60;;;;;;478305;249;1048;-46
2021/12/01 01:02:05;;;;;;;;;;;20.40;35.60;;;;;;478454;248;1271;-46
2021/12/01 01:04:06;;;;;;;;;;;20.40;35.70;;;;;;478566;248;1213;-46
2021/12/01 01:06:08;;;;;;;;;;;20.40;35.60;;;;;;478239;249;2206;-46
2021/12/01 01:08:09;;;;;;;;;;;20.40;35.60;;;;;;478216;249;2286;-45
2021/12/01 01:10:25;;;;;;;;;;;20.30;35.70;;;;;;478441;248;1135;-45
2021/12/01 01:16:58;;;;;;;;;;;20.30;35.60;;;;;;478259;248;1159;-46
2021/12/01 01:18:58;;;;;;;;;;;20.40;35.70;;;;;;478365;247;2178;-46
2021/12/01 01:21:00;;;;;;;;;;;20.40;35.60;;;;;;478315;249;1303;-46
2021/12/01 01:23:01;;;;;;;;;;;20.40;35.60;;;;;;478348;249;1074;-46
2021/12/01 01:25:03;;;;;;;;;;;20.40;35.60;;;;;;478784;249;2202;-46
2021/12/01 01:27:04;;;;;;;;;;;20.40;35.60;;;;;;478721;249;1206;-46
2021/12/01 01:29:05;;;;;;;;;;;20.40;35.60;;;;;;478443;248;955;-46
2021/12/01 01:31:07;;;;;;;;;;;20.30;35.70;;;;;;478396;249;1197;-46
2021/12/01 01:33:08;;;;;;;;;;;20.40;35.70;;;;;;478396;249;1217;-46
2021/12/01 01:35:09;;;;;;;;;;;20.40;35.70;;;;;;478752;249;1050;-46
2021/12/01 01:37:11;;;;;;;;;;;20.40;35.70;;;;;;478518;248;1260;-46
2021/12/01 01:39:12;;;;;;;;;;;20.30;35.70;;;;;;478337;249;1021;-46
2021/12/01 01:41:13;;;;;;;;;;;20.40;35.70;;;;;;478358;249;1227;-45
2021/12/01 01:43:15;;;;;;;;;;;20.40;35.70;;;;;;478447;248;1034;-46
2021/12/01 01:45:16;;;;;;;;;;;20.40;35.70;;;;;;478743;249;2122;-45
2021/12/01 01:47:17;;;;;;;;;;;20.40;35.80;;;;;;478228;249;1356;-46
2021/12/01 01:49:20;;;;;;;;;;;20.40;35.70;;;;;;478358;249;1063;-46
2021/12/01 01:51:20;;;;;;;;;;;20.30;35.70;;;;;;478206;248;2048;-46
2021/12/01 01:53:23;;;;;;;;;;;20.30;35.80;;;;;;478604;249;1027;-46
2021/12/01 01:55:23;;;;;;;;;;;20.40;35.80;;;;;;478234;249;1476;-47
2021/12/01 01:57:24;;;;;;;;;;;20.30;35.70;;;;;;478423;248;1350;-46
2021/12/01 01:59:25;;;;;;;;;;;20.40;35.80;;;;;;478447;249;1018;-46
2021/12/01 02:01:44;;;;;;;;;;;20.30;35.60;;;;;;478313;249;1278;-46
2021/12/01 02:03:40;;;;;;;;;;;20.40;35.70;;;;;;478255;248;1896;-46
2021/12/01 02:05:42;;;;;;;;;;;20.30;35.70;;;;;;478445;249;2124;-46
2021/12/01 02:07:43;;;;;;;;;;;20.30;35.80;;;;;;478483;249;1070;-46
2021/12/01 02:09:44;;;;;;;;;;;20.30;35.90;;;;;;478342;249;1117;-46
2021/12/01 02:11:46;;;;;;;;;;;20.30;35.80;;;;;;478561;248;1140;-46
2021/12/01 02:13:47;;;;;;;;;;;20.30;35.80;;;;;;478705;248;1043;-47
2021/12/01 02:15:48;;;;;;;;;;;20.30;35.80;;;;;;478426;249;1640;-46
2021/12/01 02:17:50;;;;;;;;;;;20.40;35.70;;;;;;478563;249;1109;-46
2021/12/01 02:19:51;;;;;;;;;;;20.40;35.70;;;;;;478566;248;1027;-46
2021/12/01 02:21:53;;;;;;;;;;;20.40;35.70;;;;;;478237;249;1256;-46
2021/12/01 02:23:54;;;;;;;;;;;20.40;35.70;;;;;;478316;249;1050;-46
2021/12/01 02:25:55;;;;;;;;;;;20.30;35.70;;;;;;478669;249;2193;-46
2021/12/01 02:27:57;;;;;;;;;;;20.40;35.80;;;;;;478361;249;1072;-46
2021/12/01 02:29:58;;;;;;;;;;;20.40;35.80;;;;;;478728;249;1127;-46
2021/12/01 02:31:59;;;;;;;;;;;20.30;35.70;;;;;;478367;248;1196;-46
2021/12/01 02:34:01;;;;;;;;;;;20.40;35.80;;;;;;478319;249;1226;-46
2021/12/01 02:36:02;;;;;;;;;;;20.30;35.70;;;;;;478437;248;1182;-46
2021/12/01 02:38:03;;;;;;;;;;;20.30;35.70;;;;;;478242;249;1222;-46
2021/12/01 02:40:05;;;;;;;;;;;20.40;35.80;;;;;;478553;249;1125;-46
2021/12/01 02:42:08;;;;;;;;;;;20.40;35.80;;;;;;478381;249;1218;-46
2021/12/01 02:44:08;;;;;;;;;;;20.40;35.80;;;;;;478225;249;2293;-46
2021/12/01 02:46:09;;;;;;;;;;;20.40;35.80;;;;;;478244;248;2195;-46
2021/12/01 02:48:11;;;;;;;;;;;20.40;35.80;;;;;;478498;249;1455;-46
2021/12/01 02:50:12;;;;;;;;;;;20.30;35.80;;;;;;478277;248;2300;-46
2021/12/01 02:52:15;;;;;;;;;;;20.40;35.80;;;;;;478279;249;1182;-47
2021/12/01 02:54:15;;;;;;;;;;;20.30;35.90;;;;;;478223;249;2452;-46
2021/12/01 02:56:16;;;;;;;;;;;20.30;35.80;;;;;;478297;249;1326;-46
2021/12/01 02:58:17;;;;;;;;;;;20.30;35.90;;;;;;478312;249;1152;-46
2021/12/01 03:00:19;;;;;;;;;;;20.30;35.80;;;;;;478306;249;1148;-46
2021/12/01 03:02:20;;;;;;;;;;;20.30;35.80;;;;;;478327;249;1228;-46
2021/12/01 03:04:21;;;;;;;;;;;20.40;35.80;;;;;;478397;249;1210;-47
2021/12/01 03:06:25;;;;;;;;;;;20.40;35.80;;;;;;478615;249;2186;-46
2021/12/01 03:08:24;;;;;;;;;;;20.30;35.80;;;;;;478287;248;2001;-46
2021/12/01 03:10:25;;;;;;;;;;;20.30;35.70;;;;;;478641;249;1172;-46
2021/12/01 03:12:27;;;;;;;;;;;20.40;35.80;;;;;;478283;249;1250;-46
2021/12/01 03:14:28;;;;;;;;;;;20.40;35.80;;;;;;478327;248;1104;-46
2021/12/01 03:16:30;;;;;;;;;;;20.40;35.80;;;;;;478388;249;1311;-46
2021/12/01 03:18:31;;;;;;;;;;;20.40;35.80;;;;;;478168;249;1333;-46
2021/12/01 03:20:32;;;;;;;;;;;20.30;35.80;;;;;;478284;249;1023;-46
2021/12/01 03:22:34;;;;;;;;;;;20.40;35.90;;;;;;478725;249;1218;-46
2021/12/01 03:24:35;;;;;;;;;;;20.40;35.90;;;;;;478773;249;1081;-46
2021/12/01 03:26:36;;;;;;;;;;;20.30;35.80;;;;;;478337;248;2190;-46
2021/12/01 03:28:38;;;;;;;;;;;20.30;35.80;;;;;;478308;249;990;-46
2021/12/01 03:30:39;;;;;;;;;;;20.40;35.80;;;;;;478414;249;1075;-46
2021/12/01 03:32:40;;;;;;;;;;;20.30;35.90;;;;;;478708;249;1223;-46
2021/12/01 03:34:42;;;;;;;;;;;20.30;35.80;;;;;;478517;248;1165;-46
2021/12/01 03:36:43;;;;;;;;;;;20.30;35.80;;;;;;478305;249;1573;-46
2021/12/01 03:38:44;;;;;;;;;;;20.40;35.80;;;;;;478266;249;1116;-46
2021/12/01 03:40:46;;;;;;;;;;;20.30;35.80;;;;;;478591;249;1395;-46
2021/12/01 03:42:47;;;;;;;;;;;20.40;35.80;;;;;;478291;249;1160;-46
2021/12/01 03:44:48;;;;;;;;;;;20.30;35.80;;;;;;478558;249;1069;-46
2021/12/01 03:46:50;;;;;;;;;;;20.30;35.90;;;;;;478403;249;2139;-46
2021/12/01 03:48:51;;;;;;;;;;;20.40;35.90;;;;;;478521;249;1166;-46
2021/12/01 03:50:52;;;;;;;;;;;20.40;35.90;;;;;;478610;249;1149;-46
2021/12/01 03:52:54;;;;;;;;;;;20.40;35.80;;;;;;478448;249;1171;-46
2021/12/01 03:54:55;;;;;;;;;;;20.40;35.80;;;;;;478452;249;1062;-46
2021/12/01 03:56:56;;;;;;;;;;;20.40;35.80;;;;;;478236;249;1223;-46
2021/12/01 03:58:58;;;;;;;;;;;20.40;35.90;;;;;;478533;249;1193;-46
2021/12/01 04:00:59;;;;;;;;;;;20.40;35.90;;;;;;478364;249;1394;-46
2021/12/01 04:03:00;;;;;;;;;;;20.40;35.80;;;;;;478539;249;1198;-46
2021/12/01 04:05:02;;;;;;;;;;;20.40;35.80;;;;;;478451;249;1183;-46
2021/12/01 04:07:03;;;;;;;;;;;20.40;35.90;;;;;;478440;249;2239;-46
2021/12/01 04:09:04;;;;;;;;;;;20.40;35.90;;;;;;478333;249;1118;-46
2021/12/01 04:11:06;;;;;;;;;;;20.30;35.90;;;;;;478501;249;1317;-46
2021/12/01 04:13:07;;;;;;;;;;;20.30;35.90;;;;;;478327;249;1079;-46
2021/12/01 04:15:08;;;;;;;;;;;20.30;35.90;;;;;;478263;249;1068;-46
2021/12/01 04:17:10;;;;;;;;;;;20.30;35.90;;;;;;478649;248;1407;-46
2021/12/01 04:19:11;;;;;;;;;;;20.30;35.90;;;;;;478657;249;1169;-46
2021/12/01 04:21:12;;;;;;;;;;;20.30;36.00;;;;;;478545;249;1092;-46
2021/12/01 04:23:14;;;;;;;;;;;20.30;36.00;;;;;;478329;249;1173;-46
2021/12/01 04:25:15;;;;;;;;;;;20.30;36.00;;;;;;478326;249;1100;-46
2021/12/01 04:27:16;;;;;;;;;;;20.30;35.90;;;;;;478547;249;2194;-46
2021/12/01 04:29:18;;;;;;;;;;;20.30;35.90;;;;;;478596;249;1064;-46
2021/12/01 04:31:19;;;;;;;;;;;20.40;35.90;;;;;;478546;249;1457;-47
2021/12/01 04:33:20;;;;;;;;;;;20.30;35.90;;;;;;478350;248;1204;-46
2021/12/01 04:35:24;;;;;;;;;;;20.30;35.90;;;;;;478375;249;1226;-46
2021/12/01 04:37:24;;;;;;;;;;;20.30;35.90;;;;;;478212;248;1634;-46
2021/12/01 04:39:24;;;;;;;;;;;20.30;35.90;;;;;;478568;249;2038;-46
2021/12/01 04:41:26;;;;;;;;;;;20.40;36.00;;;;;;478650;249;1214;-46
2021/12/01 04:43:27;;;;;;;;;;;20.30;36.00;;;;;;478526;249;1224;-46
2021/12/01 04:45:31;;;;;;;;;;;20.30;36.00;;;;;;478278;249;2182;-46
2021/12/01 04:47:33;;;;;;;;;;;20.40;36.00;;;;;;478225;248;2311;-47
2021/12/01 04:49:32;;;;;;;;;;;20.40;35.90;;;;;;478091;249;1636;-46
2021/12/01 04:51:33;;;;;;;;;;;20.30;35.90;;;;;;478546;249;1481;-46
2021/12/01 04:53:34;;;;;;;;;;;20.30;35.90;;;;;;478558;249;1104;-46
2021/12/01 04:55:38;;;;;;;;;;;20.30;35.90;;;;;;478652;249;1144;-46
2021/12/01 04:57:37;;;;;;;;;;;20.30;35.90;;;;;;478246;249;2541;-46
2021/12/01 04:59:38;;;;;;;;;;;20.30;35.90;;;;;;478338;249;1051;-46
2021/12/01 05:01:41;;;;;;;;;;;20.30;35.90;;;;;;478177;249;1202;-46
2021/12/01 05:03:41;;;;;;;;;;;20.30;36.00;;;;;;478232;248;2249;-46
2021/12/01 05:05:43;;;;;;;;;;;20.30;36.00;;;;;;477603;249;2167;-46
2021/12/01 05:07:44;;;;;;;;;;;20.30;36.00;;;;;;478360;249;1256;-46
2021/12/01 05:09:45;;;;;;;;;;;20.30;36.00;;;;;;478252;249;1081;-46
2021/12/01 05:11:47;;;;;;;;;;;20.30;36.00;;;;;;478269;249;1358;-46
2021/12/01 05:13:48;;;;;;;;;;;20.30;36.00;;;;;;478314;249;1176;-46
2021/12/01 05:15:49;;;;;;;;;;;20.30;36.00;;;;;;478520;249;1190;-46
2021/12/01 05:17:51;;;;;;;;;;;20.30;36.00;;;;;;478239;249;1185;-46
2021/12/01 05:19:52;;;;;;;;;;;20.30;36.00;;;;;;478586;249;1302;-46
2021/12/01 05:21:54;;;;;;;;;;;20.30;36.10;;;;;;478648;249;1298;-46
2021/12/01 05:23:55;;;;;;;;;;;20.30;36.00;;;;;;478707;248;2433;-47
2021/12/01 05:25:56;;;;;;;;;;;20.30;36.00;;;;;;478488;249;2203;-46
2021/12/01 05:27:57;;;;;;;;;;;20.30;36.00;;;;;;478642;249;1024;-46
2021/12/01 05:29:59;;;;;;;;;;;20.20;36.00;;;;;;478431;249;1097;-46
2021/12/01 05:32:00;;;;;;;;;;;20.30;36.10;;;;;;478600;248;1074;-46
2021/12/01 05:34:01;;;;;;;;;;;20.30;36.00;;;;;;478578;248;1138;-46
2021/12/01 05:36:03;;;;;;;;;;;20.30;36.00;;;;;;478256;249;1358;-46
2021/12/01 05:38:04;;;;;;;;;;;20.30;36.00;;;;;;478486;249;956;-46
2021/12/01 05:40:05;;;;;;;;;;;20.40;36.00;;;;;;478647;248;1106;-46
2021/12/01 05:42:07;;;;;;;;;;;20.30;36.00;;;;;;478367;248;1194;-46
2021/12/01 05:44:08;;;;;;;;;;;20.30;36.00;;;;;;478098;249;1074;-46
2021/12/01 05:46:09;;;;;;;;;;;20.40;36.00;;;;;;478216;249;2131;-46
2021/12/01 05:48:11;;;;;;;;;;;20.40;36.00;;;;;;478183;249;1129;-46
2021/12/01 05:50:12;;;;;;;;;;;20.30;35.90;;;;;;478302;249;1303;-46
2021/12/01 05:52:13;;;;;;;;;;;20.30;36.00;;;;;;478189;249;1172;-46
2021/12/01 05:54:15;;;;;;;;;;;20.30;36.10;;;;;;478178;249;1085;-46
2021/12/01 05:56:16;;;;;;;;;;;20.30;36.00;;;;;;478240;249;1163;-46
2021/12/01 05:58:17;;;;;;;;;;;20.40;36.00;;;;;;478224;249;1073;-46
2021/12/01 06:00:19;;;;;;;;;;;20.40;36.00;;;;;;478373;249;1065;-46
2021/12/01 06:02:20;;;;;;;;;;;20.40;36.00;;;;;;478161;248;1946;-46
2021/12/01 06:04:23;;;;;;;;;;;20.30;36.00;;;;;;478281;248;1063;-46
2021/12/01 06:06:23;;;;;;;;;;;20.40;36.10;;;;;;477990;249;2201;-46
2021/12/01 06:08:24;;;;;;;;;;;20.40;36.00;;;;;;478292;249;1064;-46
2021/12/01 06:10:25;;;;;;;;;;;20.30;35.90;;;;;;478264;249;1081;-46
2021/12/01 06:12:27;;;;;;;;;;;20.40;36.00;;;;;;478356;248;1219;-46
2021/12/01 06:14:28;;;;;;;;;;;20.40;36.00;;;;;;478070;249;1079;-46
2021/12/01 06:16:29;;;;;;;;;;;20.30;36.00;;;;;;478082;248;1350;-46
2021/12/01 06:18:31;;;;;;;;;;;20.30;36.00;;;;;;478039;249;1193;-46
2021/12/01 06:20:32;;;;;;;;;;;20.30;35.90;;;;;;478114;249;1205;-46
2021/12/01 06:22:33;;;;;;;;;;;20.30;36.10;;;;;;478361;249;1229;-46
2021/12/01 06:24:35;;;;;;;;;;;20.30;36.10;;;;;;478179;249;1021;-46
2021/12/01 06:26:36;;;;;;;;;;;20.30;36.10;;;;;;478107;248;2179;-46
2021/12/01 06:28:38;;;;;;;;;;;20.30;36.10;;;;;;478218;249;1129;-46
2021/12/01 06:30:39;;;;;;;;;;;20.30;36.10;;;;;;478109;248;1040;-46
2021/12/01 06:32:41;;;;;;;;;;;20.30;36.10;;;;;;478232;249;1412;-46
2021/12/01 06:34:42;;;;;;;;;;;20.30;36.00;;;;;;478016;249;1088;-46
2021/12/01 06:36:43;;;;;;;;;;;20.30;36.10;;;;;;477995;248;1695;-46
2021/12/01 06:38:45;;;;;;;;;;;20.30;36.10;;;;;;477997;249;1185;-46
2021/12/01 06:40:46;;;;;;;;;;;20.30;36.00;;;;;;477918;249;1133;-46
2021/12/01 06:42:47;;;;;;;;;;;20.30;36.10;;;;;;478078;249;1338;-47
2021/12/01 06:44:48;;;;;;;;;;;20.30;36.10;;;;;;478223;249;1098;-46
2021/12/01 06:46:50;;;;;;;;;;;20.30;36.20;;;;;;478217;248;2194;-46
2021/12/01 06:48:51;;;;;;;;;;;20.30;36.10;;;;;;477920;249;1222;-46
2021/12/01 06:50:53;;;;;;;;;;;20.30;36.10;;;;;;477990;249;1200;-46
2021/12/01 06:52:54;;;;;;;;;;;20.30;36.10;;;;;;477923;249;1136;-46
2021/12/01 06:54:56;;;;;;;;;;;20.30;36.20;;;;;;477877;249;1045;-46
2021/12/01 06:56:57;;;;;;;;;;;20.30;36.10;;;;;;478091;249;1283;-46
2021/12/01 06:58:58;;;;;;;;;;;20.30;36.10;;;;;;478014;248;1072;-46
2021/12/01 07:01:00;;;;;;;;;;;20.30;36.10;;;;;;478224;249;1057;-46
2021/12/01 07:03:01;;;;;;;;;;;20.30;36.10;;;;;;477845;249;1208;-46
2021/12/01 07:05:02;;;;;;;;;;;20.30;36.10;;;;;;477863;249;1252;-46
2021/12/01 07:07:04;;;;;;;;;;;20.30;36.10;;;;;;477870;249;2187;-46
2021/12/01 07:09:05;;;;;;;;;;;20.30;36.10;;;;;;477853;249;1318;-45
2021/12/01 07:11:06;;;;;;;;;;;20.30;36.10;;;;;;477840;248;1249;-46
2021/12/01 07:13:08;;;;;;;;;;;20.30;36.10;;;;;;477716;249;1314;-46
2021/12/01 07:15:09;;;;;;;;;;;20.30;36.10;;;;;;477876;249;1228;-46
2021/12/01 07:17:10;;;;;;;;;;;20.30;36.10;;;;;;477848;249;1279;-46
2021/12/01 07:19:12;;;;;;;;;;;20.30;36.10;;;;;;477767;249;1365;-46
2021/12/01 07:21:13;;;;;;;;;;;20.30;36.00;;;;;;477808;248;1199;-46
2021/12/01 07:23:14;;;;;;;;;;;20.30;36.00;;;;;;477885;248;1248;-46
2021/12/01 07:25:16;;;;;;;;;;;20.40;36.00;;;;;;477857;249;1153;-46
2021/12/01 07:27:17;;;;;;;;;;;20.30;35.90;;;;;;477790;249;2190;-46
2021/12/01 07:29:19;;;;;;;;;;;20.30;35.90;;;;;;477828;249;1690;-46
2021/12/01 07:31:20;;;;;;;;;;;20.30;36.00;;;;;;477592;249;1149;-46
2021/12/01 07:33:21;;;;;;;;;;;20.30;36.00;;;;;;477681;249;1336;-46
2021/12/01 07:35:22;;;;;;;;;;;20.30;35.90;;;;;;477688;249;1072;-46
2021/12/01 07:37:24;;;;;;;;;;;20.30;35.90;;;;;;477704;249;1233;-46
2021/12/01 07:39:25;;;;;;;;;;;20.40;35.90;;;;;;477766;249;1081;-46
2021/12/01 07:41:27;;;;;;;;;;;20.40;35.90;;;;;;477759;249;1271;-46
2021/12/01 07:43:28;;;;;;;;;;;20.30;35.90;;;;;;477736;249;1115;-46
2021/12/01 07:45:29;;;;;;;;;;;20.30;35.90;;;;;;477776;249;1109;-47
2021/12/01 07:47:31;;;;;;;;;;;20.30;35.90;;;;;;477779;249;2147;-46
2021/12/01 07:49:32;;;;;;;;;;;20.30;35.80;;;;;;477903;249;1199;-46
2021/12/01 07:51:33;;;;;;;;;;;20.30;35.90;;;;;;477643;249;1521;-46
2021/12/01 07:53:35;;;;;;;;;;;20.40;35.90;;;;;;477596;249;1104;-46
2021/12/01 07:55:36;;;;;;;;;;;20.30;35.80;;;;;;477492;249;1176;-46
2021/12/01 07:57:38;;;;;;;;;;;20.40;35.80;;;;;;477546;249;1131;-46
2021/12/01 07:59:39;;;;;;;;;;;20.30;35.80;;;;;;478038;249;1133;-46
2021/12/01 08:01:41;;;;;;;;;;;20.30;35.80;;;;;;477542;248;1314;-46
2021/12/01 08:03:42;;;;;;;;;;;20.30;35.80;;;;;;477547;249;1076;-46
2021/12/01 08:05:43;;;;;;;;;;;20.40;35.80;;;;;;477488;248;1326;-46
2021/12/01 08:07:45;;;;;;;;;;;20.30;35.70;;;;;;477600;249;2182;-46
2021/12/01 08:09:46;;;;;;;;;;;20.30;35.80;;;;;;477509;249;1077;-46
2021/12/01 08:11:47;;;;;;;;;;;20.30;35.80;;;;;;477563;249;1210;-46
2021/12/01 08:13:49;;;;;;;;;;;20.30;35.80;;;;;;477589;248;1182;-46
2021/12/01 08:15:50;;;;;;;;;;;20.40;35.80;;;;;;477473;249;1357;-47
2021/12/01 08:17:52;;;;;;;;;;;20.30;35.70;;;;;;477457;248;1190;-46
2021/12/01 08:19:53;;;;;;;;;;;20.40;35.80;;;;;;477450;248;2263;-46
2021/12/01 08:21:54;;;;;;;;;;;20.30;35.80;;;;;;477496;249;1336;-46
2021/12/01 08:23:55;;;;;;;;;;;20.30;35.80;;;;;;477388;249;1264;-46
2021/12/01 08:25:57;;;;;;;;;;;20.30;35.80;;;;;;477499;249;1228;-45
2021/12/01 08:28:00;;;;;;;;;;;20.30;35.70;;;;;;477653;248;2190;-46
2021/12/01 08:30:00;;;;;;;;;;;20.30;35.80;;;;;;477617;249;2300;-46
2021/12/01 08:32:02;;;;;;;;;;;20.30;35.70;;;;;;477552;249;1378;-46
2021/12/01 08:34:03;;;;;;;;;;;20.30;35.70;;;;;;477570;249;1123;-46
2021/12/01 08:36:04;;;;;;;;;;;20.30;35.70;;;;;;477478;249;1203;-46
2021/12/01 08:38:06;;;;;;;;;;;20.30;35.80;;;;;;477506;249;1221;-46
2021/12/01 08:40:07;;;;;;;;;;;20.30;35.70;;;;;;477384;249;1276;-46
2021/12/01 08:42:10;;;;;;;;;;;20.30;35.70;;;;;;477608;249;1478;-47
2021/12/01 08:44:10;;;;;;;;;;;20.30;35.70;;;;;;477590;249;2495;-47
2021/12/01 08:46:11;;;;;;;;;;;20.30;35.70;;;;;;477710;249;1348;-46
2021/12/01 08:48:12;;;;;;;;;;;20.30;35.70;;;;;;477586;249;2183;-46
2021/12/01 08:50:14;;;;;;;;;;;20.30;35.70;;;;;;477507;249;1194;-46
2021/12/01 08:52:15;;;;;;;;;;;20.30;35.70;;;;;;477526;249;1228;-46
2021/12/01 08:54:16;;;;;;;;;;;20.30;35.60;;;;;;477653;249;1250;-46
2021/12/01 08:56:18;;;;;;;;;;;20.30;35.60;;;;;;477589;249;1275;-46
2021/12/01 08:58:20;;;;;;;;;;;20.30;35.70;;;;;;477624;248;1086;-46
2021/12/01 09:00:21;;;;;;;;;;;20.40;35.70;;;;;;477520;249;1168;-46
2021/12/01 09:02:22;;;;;;;;;;;20.40;35.60;;;;;;477504;249;1367;-46
2021/12/01 09:04:24;;;;;;;;;;;20.30;35.60;;;;;;477626;249;1105;-46
2021/12/01 09:06:25;;;;;;;;;;;20.40;35.60;;;;;;477512;248;1307;-46
2021/12/01 09:08:26;;;;;;;;;;;20.40;35.60;;;;;;477659;249;2210;-46
2021/12/01 09:10:28;;;;;;;;;;;20.40;35.70;;;;;;477715;249;1098;-46
2021/12/01 09:12:29;;;;;;;;;;;20.40;35.70;;;;;;477845;248;1302;-46
2021/12/01 09:14:31;;;;;;;;;;;20.40;35.70;;;;;;477709;249;1614;-46
2021/12/01 09:16:32;;;;;;;;;;;20.50;35.70;;;;;;477645;249;1131;-46
2021/12/01 09:18:33;;;;;;;;;;;20.50;35.60;;;;;;477737;249;1092;-46
2021/12/01 09:20:34;;;;;;;;;;;20.50;35.60;;;;;;477608;249;1087;-46
2021/12/01 09:22:36;;;;;;;;;;;20.50;35.60;;;;;;477542;249;1312;-46
2021/12/01 09:24:38;;;;;;;;;;;20.50;35.60;;;;;;477549;249;1065;-46
2021/12/01 09:26:39;;;;;;;;;;;20.50;35.70;;;;;;477590;248;2065;-46
2021/12/01 09:28:40;;;;;;;;;;;20.40;35.60;;;;;;477541;249;2238;-46
2021/12/01 09:30:41;;;;;;;;;;;20.50;35.70;;;;;;477585;248;1206;-46
2021/12/01 09:32:43;;;;;;;;;;;20.50;35.70;;;;;;477603;248;1249;-46
2021/12/01 09:34:44;;;;;;;;;;;20.50;35.70;;;;;;477485;248;1083;-46
2021/12/01 09:36:45;;;;;;;;;;;20.50;35.60;;;;;;477556;249;1213;-46
2021/12/01 09:38:47;;;;;;;;;;;20.50;35.60;;;;;;477532;249;1330;-46
2021/12/01 09:40:49;;;;;;;;;;;20.60;35.60;;;;;;477602;249;1350;-46
2021/12/01 09:42:49;;;;;;;;;;;20.60;35.60;;;;;;477395;249;2328;-46
2021/12/01 09:44:51;;;;;;;;;;;20.60;35.60;;;;;;477613;248;1115;-46
2021/12/01 09:46:52;;;;;;;;;;;20.50;35.60;;;;;;477338;249;1325;-46
2021/12/01 09:48:53;;;;;;;;;;;20.50;35.60;;;;;;477383;249;2194;-46
2021/12/01 09:50:55;;;;;;;;;;;20.50;35.50;;;;;;477443;249;1077;-46
2021/12/01 09:52:56;;;;;;;;;;;20.60;35.60;;;;;;477649;248;1302;-46
2021/12/01 09:54:57;;;;;;;;;;;20.50;35.60;;;;;;477617;249;1115;-46
2021/12/01 09:56:59;;;;;;;;;;;20.50;35.60;;;;;;477563;249;1637;-46
2021/12/01 09:59:00;;;;;;;;;;;20.60;35.70;;;;;;477628;249;1076;-46
2021/12/01 10:01:01;;;;;;;;;;;20.60;35.80;;;;;;477597;249;1035;-46
2021/12/01 10:03:03;;;;;;;;;;;20.50;35.70;;;;;;477537;249;1197;-46
2021/12/01 10:05:04;;;;;;;;;;;20.50;35.70;;;;;;477574;249;1095;-46
2021/12/01 10:07:05;;;;;;;;;;;20.50;35.70;;;;;;477669;249;1303;-46
2021/12/01 10:09:07;;;;;;;;;;;20.60;35.70;;;;;;477617;249;2191;-46
2021/12/01 10:11:08;;;;;;;;;;;20.60;35.70;;;;;;477609;249;1345;-46
2021/12/01 10:13:09;;;;;;;;;;;20.60;35.60;;;;;;477656;248;1247;-46
2021/12/01 10:15:11;;;;;;;;;;;20.60;35.70;;;;;;477619;248;1274;-46
2021/12/01 10:17:12;;;;;;;;;;;20.60;35.80;;;;;;477635;249;1494;-46
2021/12/01 10:19:13;;;;;;;;;;;20.60;35.80;;;;;;477458;249;1104;-46
2021/12/01 10:21:15;;;;;;;;;;;20.60;35.80;;;;;;477487;249;1254;-46
2021/12/01 10:23:16;;;;;;;;;;;20.60;35.70;;;;;;477853;249;1204;-46
2021/12/01 10:25:17;;;;;;;;;;;20.60;35.80;;;;;;477538;249;1070;-46
2021/12/01 10:27:19;;;;;;;;;;;20.60;35.80;;;;;;477635;249;1316;-46
2021/12/01 10:29:20;;;;;;;;;;;20.60;35.70;;;;;;478316;249;2191;-46
2021/12/01 10:31:21;;;;;;;;;;;20.60;35.70;;;;;;477710;249;1333;-46
2021/12/01 10:33:23;;;;;;;;;;;20.60;35.70;;;;;;477477;249;1135;-46
2021/12/01 10:35:24;;;;;;;;;;;20.60;35.70;;;;;;477444;249;1069;-46
2021/12/01 10:37:26;;;;;;;;;;;20.60;35.60;;;;;;477646;249;1225;-46
2021/12/01 10:39:27;;;;;;;;;;;20.50;35.60;;;;;;477537;249;1481;-46
2021/12/01 10:41:28;;;;;;;;;;;20.50;35.60;;;;;;477524;249;1405;-46
2021/12/01 10:43:29;;;;;;;;;;;20.60;35.80;;;;;;477520;249;1238;-46
2021/12/01 10:45:31;;;;;;;;;;;20.50;35.70;;;;;;477544;249;1182;-46
2021/12/01 10:47:32;;;;;;;;;;;20.50;35.70;;;;;;477335;249;1228;-46
2021/12/01 10:49:33;;;;;;;;;;;20.50;35.70;;;;;;477476;249;2117;-46
2021/12/01 10:51:35;;;;;;;;;;;20.50;35.60;;;;;;477438;249;1312;-46
2021/12/01 10:53:36;;;;;;;;;;;20.50;35.70;;;;;;477644;249;1232;-46
2021/12/01 10:55:37;;;;;;;;;;;20.50;35.70;;;;;;477691;249;1158;-46
2021/12/01 10:57:39;;;;;;;;;;;20.50;35.80;;;;;;477593;249;1304;-46
2021/12/01 10:59:40;;;;;;;;;;;20.40;35.70;;;;;;477619;249;1129;-46
2021/12/01 11:01:42;;;;;;;;;;;20.50;35.80;;;;;;477566;249;1346;-46
2021/12/01 11:03:45;;;;;;;;;;;20.50;35.70;;;;;;477589;249;1128;-46
2021/12/01 11:05:44;;;;;;;;;;;20.50;35.60;;;;;;477487;248;2243;-46
2021/12/01 11:07:46;;;;;;;;;;;20.50;35.70;;;;;;477563;249;2200;-46
2021/12/01 11:09:47;;;;;;;;;;;20.40;35.70;;;;;;477783;249;1119;-46
2021/12/01 11:11:51;;;;;;;;;;;20.40;35.60;;;;;;477589;249;1289;-46
2021/12/01 11:13:50;;;;;;;;;;;20.40;35.70;;;;;;477616;249;1820;-46
2021/12/01 11:15:51;;;;;;;;;;;20.40;35.70;;;;;;477455;249;1362;-46
2021/12/01 11:17:54;;;;;;;;;;;20.40;35.70;;;;;;477661;249;1133;-47
2021/12/01 11:19:57;;;;;;;;;;;20.40;35.60;;;;;;477516;248;2348;-46
2021/12/01 11:21:55;;;;;;;;;;;20.40;35.70;;;;;;477380;249;1935;-46
2021/12/01 11:23:57;;;;;;;;;;;20.40;35.70;;;;;;477790;249;1233;-46
2021/12/01 11:25:58;;;;;;;;;;;20.40;35.60;;;;;;477659;249;1341;-46
2021/12/01 11:27:59;;;;;;;;;;;20.40;35.60;;;;;;477866;249;2174;-46
2021/12/01 11:30:01;;;;;;;;;;;20.50;35.50;;;;;;477816;249;1107;-47
2021/12/01 11:32:02;;;;;;;;;;;20.50;35.50;;;;;;477627;249;1279;-46
2021/12/01 11:34:03;;;;;;;;;;;20.50;35.50;;;;;;477740;249;1139;-46
2021/12/01 11:36:05;;;;;;;;;;;20.50;35.40;;;;;;477437;249;1257;-47
2021/12/01 11:38:06;;;;;;;;;;;20.50;35.50;;;;;;477677;249;1441;-47
2021/12/01 11:40:07;;;;;;;;;;;20.50;35.50;;;;;;477649;249;1194;-46
2021/12/01 11:42:09;;;;;;;;;;;20.50;35.50;;;;;;477589;249;1257;-46
2021/12/01 11:44:10;;;;;;;;;;;20.50;35.50;;;;;;477761;248;1065;-46
2021/12/01 11:46:11;;;;;;;;;;;20.60;35.40;;;;;;477768;249;1219;-46
2021/12/01 11:48:13;;;;;;;;;;;20.50;35.40;;;;;;477718;249;2186;-46
2021/12/01 11:50:14;;;;;;;;;;;20.50;35.40;;;;;;477670;249;1090;-46
2021/12/01 11:52:15;;;;;;;;;;;20.50;35.40;;;;;;477724;249;1226;-46
2021/12/01 11:54:19;;;;;;;;;;;20.50;35.30;;;;;;477760;249;1170;-46
2021/12/01 11:56:18;;;;;;;;;;;20.50;35.30;;;;;;477524;249;2246;-46
2021/12/01 11:58:19;;;;;;;;;;;20.60;35.30;;;;;;477550;249;1089;-47
2021/12/01 12:00:21;;;;;;;;;;;20.60;35.20;;;;;;477422;248;1312;-46
2021/12/01 12:02:22;;;;;;;;;;;20.60;35.20;;;;;;477557;248;1290;-46